createdAt,value
2022-09-18T00:00:31.576Z,15.18
2022-09-18T00:02:59.659Z,15.17
2022-09-18T00:05:27.697Z,15.00
2022-09-18T00:07:55.759Z,15.06
2022-09-18T00:10:25.606Z,14.84
2022-09-18T00:12:53.671Z,15.04
2022-09-18T00:15:21.662Z,14.94
2022-09-18T00:17:49.679Z,15.02
2022-09-18T00:20:17.838Z,14.80
2022-09-18T00:22:47.153Z,15.04
2022-09-18T00:25:15.292Z,15.03
2022-09-18T00:27:44.731Z,14.94
2022-09-18T00:30:13.549Z,14.93
2022-09-18T00:32:41.877Z,14.93
2022-09-18T00:35:10.506Z,14.93
2022-09-18T00:37:38.559Z,14.98
2022-09-18T00:40:07.150Z,14.99
2022-09-18T00:42:35.234Z,15.02
2022-09-18T00:45:04.947Z,14.93
2022-09-18T00:47:34.057Z,14.94
2022-09-18T00:50:06.039Z,14.97
2022-09-18T00:52:41.065Z,14.94
2022-09-18T00:55:10.320Z,14.92
2022-09-18T00:57:41.347Z,15.00
2022-09-18T01:00:14.466Z,14.92
2022-09-18T01:02:43.810Z,15.04
2022-09-18T01:05:12.789Z,14.89
2022-09-18T01:07:50.865Z,14.82
2022-09-18T01:10:27.183Z,14.70
2022-09-18T01:12:57.078Z,14.50
2022-09-18T01:15:31.491Z,14.70
2022-09-18T01:18:03.777Z,14.60
2022-09-18T01:20:48.130Z,14.55
2022-09-18T01:23:28.746Z,14.53
2022-09-18T01:26:01.405Z,14.60
2022-09-18T01:28:34.095Z,14.54
2022-09-18T01:31:05.708Z,14.50
2022-09-18T01:33:51.150Z,14.58
2022-09-18T01:36:20.027Z,14.58
2022-09-18T01:38:49.562Z,14.54
2022-09-18T01:41:20.030Z,14.57
2022-09-18T01:43:49.842Z,14.59
2022-09-18T01:46:19.692Z,14.60
2022-09-18T01:48:50.466Z,14.60
2022-09-18T01:51:20.621Z,14.62
2022-09-18T01:53:49.866Z,14.59
2022-09-18T01:56:18.384Z,14.52
2022-09-18T01:58:46.475Z,14.45
2022-09-18T02:01:17.089Z,14.35
2022-09-18T02:03:47.578Z,14.36
2022-09-18T02:06:17.840Z,14.29
2022-09-18T02:08:47.890Z,14.21
2022-09-18T02:11:17.587Z,14.20
2022-09-18T02:13:47.531Z,14.22
2022-09-18T02:16:19.861Z,14.12
2022-09-18T02:18:49.876Z,14.24
2022-09-18T02:21:23.402Z,14.22
2022-09-18T02:23:51.478Z,14.32
2022-09-18T02:26:19.479Z,14.33
2022-09-18T02:28:48.168Z,14.31
2022-09-18T02:31:18.684Z,14.33
2022-09-18T02:33:48.627Z,14.28
2022-09-18T02:36:46.270Z,14.31
2022-09-18T02:39:22.556Z,14.22
2022-09-18T02:41:52.561Z,14.22
2022-09-18T02:44:21.891Z,14.07
2022-09-18T02:46:56.518Z,14.10
2022-09-18T02:49:32.752Z,13.99
2022-09-18T02:52:03.700Z,13.95
2022-09-18T02:54:35.352Z,13.89
2022-09-18T02:57:04.250Z,14.01
2022-09-18T02:59:33.072Z,14.04
2022-09-18T03:02:01.235Z,14.03
2022-09-18T03:04:33.124Z,14.05
2022-09-18T03:07:03.725Z,14.01
2022-09-18T03:09:34.947Z,13.95
2022-09-18T03:12:03.291Z,13.94
2022-09-18T03:14:37.824Z,13.97
2022-09-18T03:17:06.062Z,13.95
2022-09-18T03:19:35.416Z,13.90
2022-09-18T03:22:04.251Z,13.63
2022-09-18T03:24:35.961Z,13.67
2022-09-18T03:27:05.538Z,13.54
2022-09-18T03:29:33.603Z,13.58
2022-09-18T03:32:03.107Z,13.50
2022-09-18T03:34:38.735Z,13.54
2022-09-18T03:37:06.842Z,13.52
2022-09-18T03:39:35.137Z,13.48
2022-09-18T03:42:04.975Z,13.37
2022-09-18T03:44:33.258Z,13.29
2022-09-18T03:47:04.878Z,13.35
2022-09-18T03:49:32.955Z,13.34
2022-09-18T03:52:02.607Z,13.34
2022-09-18T03:54:35.849Z,13.32
2022-09-18T03:57:17.964Z,13.25
2022-09-18T04:00:09.582Z,13.23
2022-09-18T04:02:43.382Z,13.22
2022-09-18T04:05:43.834Z,13.16
2022-09-18T04:08:31.430Z,13.09
2022-09-18T04:11:25.242Z,13.10
2022-09-18T04:13:54.068Z,13.18
2022-09-18T04:16:22.923Z,13.17
2022-09-18T04:18:52.906Z,13.29
2022-09-18T04:21:23.028Z,13.26
2022-09-18T04:23:54.114Z,13.38
2022-09-18T04:26:22.142Z,13.39
2022-09-18T04:28:55.233Z,13.37
2022-09-18T04:31:23.408Z,13.37
2022-09-18T04:33:51.552Z,13.34
2022-09-18T04:36:23.418Z,13.29
2022-09-18T04:38:53.239Z,13.16
2022-09-18T04:41:21.523Z,13.26
2022-09-18T04:43:49.782Z,13.29
2022-09-18T04:46:19.850Z,13.34
2022-09-18T04:48:49.318Z,13.39
2022-09-18T04:51:18.616Z,13.42
2022-09-18T04:53:49.341Z,13.42
2022-09-18T04:56:19.214Z,13.38
2022-09-18T04:58:51.130Z,13.23
2022-09-18T05:01:19.234Z,13.29
2022-09-18T05:03:47.588Z,13.25
2022-09-18T05:06:26.862Z,13.18
2022-09-18T05:08:54.932Z,13.18
2022-09-18T05:11:28.248Z,13.18
2022-09-18T05:13:56.983Z,13.16
2022-09-18T05:16:27.132Z,13.10
2022-09-18T05:19:15.498Z,13.09
2022-09-18T05:21:43.543Z,12.98
2022-09-18T05:24:14.092Z,13.04
2022-09-18T05:26:44.897Z,12.99
2022-09-18T05:29:13.132Z,12.97
2022-09-18T05:31:43.116Z,12.93
2022-09-18T05:34:11.214Z,13.00
2022-09-18T05:36:41.442Z,13.02
2022-09-18T05:39:12.120Z,13.11
2022-09-18T05:41:44.470Z,13.17
2022-09-18T05:44:13.541Z,13.19
2022-09-18T05:46:41.640Z,13.03
2022-09-18T05:49:09.733Z,13.24
2022-09-18T05:51:39.082Z,13.24
2022-09-18T05:54:07.246Z,13.17
2022-09-18T05:56:41.681Z,13.20
2022-09-18T05:59:11.242Z,13.16
2022-09-18T06:01:41.661Z,13.15
2022-09-18T06:04:22.151Z,13.15
2022-09-18T06:06:54.874Z,13.19
2022-09-18T06:09:22.946Z,13.25
2022-09-18T06:11:51.055Z,13.27
2022-09-18T06:14:20.914Z,13.34
2022-09-18T06:16:49.333Z,13.35
2022-09-18T06:19:17.922Z,13.43
2022-09-18T06:21:48.960Z,13.52
2022-09-18T06:24:19.411Z,13.58
2022-09-18T06:27:07.673Z,13.67
2022-09-18T06:29:37.349Z,13.79
2022-09-18T06:32:10.901Z,13.87
2022-09-18T06:34:40.623Z,13.90
2022-09-18T06:37:11.294Z,14.00
2022-09-18T06:39:45.302Z,14.06
2022-09-18T06:42:29.133Z,14.05
2022-09-18T06:45:18.967Z,14.00
2022-09-18T06:47:54.158Z,13.98
2022-09-18T06:50:23.869Z,13.98
2022-09-18T06:52:51.956Z,14.01
2022-09-18T06:55:20.518Z,13.77
2022-09-18T06:57:54.658Z,14.13
2022-09-18T07:00:24.234Z,14.14
2022-09-18T07:02:57.640Z,14.06
2022-09-18T07:05:45.423Z,14.01
2022-09-18T07:08:22.042Z,14.00
2022-09-18T07:10:54.429Z,14.06
2022-09-18T07:13:23.326Z,14.18
2022-09-18T07:15:52.858Z,14.22
2022-09-18T07:18:21.305Z,14.14
2022-09-18T07:20:49.380Z,14.17
2022-09-18T07:23:33.200Z,14.28
2022-09-18T07:26:01.630Z,14.32
2022-09-18T07:28:29.770Z,14.41
2022-09-18T07:31:07.200Z,14.28
2022-09-18T07:33:37.283Z,14.51
2022-09-18T07:36:06.581Z,14.52
2022-09-18T07:38:37.546Z,14.53
2022-09-18T07:41:06.762Z,14.60
2022-09-18T07:43:35.441Z,14.68
2022-09-18T07:46:03.649Z,14.75
2022-09-18T07:48:36.144Z,14.73
2022-09-18T07:51:18.829Z,14.79
2022-09-18T07:53:50.122Z,14.82
2022-09-18T07:56:27.082Z,14.82
2022-09-18T07:58:56.382Z,14.97
2022-09-18T08:01:28.421Z,15.10
2022-09-18T08:04:00.604Z,15.25
2022-09-18T08:06:37.501Z,15.48
2022-09-18T08:09:27.718Z,15.74
2022-09-18T08:12:12.374Z,16.04
2022-09-18T08:15:03.784Z,16.25
2022-09-18T08:17:45.832Z,16.42
2022-09-18T08:20:31.691Z,16.51
2022-09-18T08:23:15.802Z,16.49
2022-09-18T08:25:44.388Z,16.47
2022-09-18T08:28:12.660Z,16.50
2022-09-18T08:30:50.763Z,16.64
2022-09-18T08:33:19.393Z,16.90
2022-09-18T08:35:48.981Z,17.15
2022-09-18T08:38:25.116Z,17.33
2022-09-18T08:41:38.799Z,17.46
2022-09-18T08:44:09.476Z,17.36
2022-09-18T08:46:41.124Z,17.38
2022-09-18T08:49:21.720Z,17.37
2022-09-18T08:52:04.789Z,17.22
2022-09-18T08:54:43.507Z,17.55
2022-09-18T08:57:18.769Z,17.76
2022-09-18T09:00:23.346Z,18.12
2022-09-18T09:03:02.844Z,18.32
2022-09-18T09:05:32.916Z,18.38
2022-09-18T09:08:28.733Z,18.29
2022-09-18T09:11:00.417Z,18.19
2022-09-18T09:14:10.695Z,18.17
2022-09-18T09:16:43.417Z,18.03
2022-09-18T09:19:31.460Z,17.86
2022-09-18T09:22:05.644Z,17.91
2022-09-18T09:24:38.099Z,18.06
2022-09-18T09:27:13.299Z,18.28
2022-09-18T09:30:14.495Z,18.48
2022-09-18T09:33:16.813Z,18.50
2022-09-18T09:36:09.409Z,18.58
2022-09-18T09:38:54.005Z,18.66
2022-09-18T09:41:29.008Z,18.88
2022-09-18T09:44:02.317Z,19.24
2022-09-18T09:46:41.950Z,19.55
2022-09-18T09:49:12.285Z,19.98
2022-09-18T09:51:44.640Z,20.05
2022-09-18T09:54:12.798Z,20.07
2022-09-18T09:56:44.372Z,20.14
2022-09-18T09:59:17.720Z,20.24
2022-09-18T10:02:34.395Z,20.43
2022-09-18T10:05:07.701Z,20.57
2022-09-18T10:07:38.244Z,20.59
2022-09-18T10:10:08.527Z,20.76
2022-09-18T10:12:42.385Z,20.84
2022-09-18T10:15:17.407Z,21.02
2022-09-18T10:17:46.988Z,21.30
2022-09-18T10:20:16.614Z,21.58
2022-09-18T10:22:44.894Z,21.77
2022-09-18T10:25:17.286Z,22.00
2022-09-18T10:27:47.274Z,22.22
2022-09-18T10:30:16.450Z,22.27
2022-09-18T10:32:51.004Z,22.19
2022-09-18T10:35:41.476Z,22.26
2022-09-18T10:38:33.537Z,22.44
2022-09-18T10:41:28.696Z,22.53
2022-09-18T10:44:00.366Z,22.52
2022-09-18T10:46:31.602Z,22.53
2022-09-18T10:49:00.710Z,22.36
2022-09-18T10:51:29.419Z,22.35
2022-09-18T10:54:04.106Z,22.45
2022-09-18T10:56:51.717Z,22.15
2022-09-18T10:59:36.674Z,22.33
2022-09-18T11:02:06.313Z,22.63
2022-09-18T11:04:36.649Z,22.83
2022-09-18T11:07:07.610Z,22.83
2022-09-18T11:09:38.747Z,22.83
2022-09-18T11:12:15.689Z,23.06
2022-09-18T11:14:48.161Z,23.29
2022-09-18T11:17:26.623Z,23.19
2022-09-18T11:19:56.404Z,23.07
2022-09-18T11:22:41.629Z,22.73
2022-09-18T11:25:38.873Z,22.28
2022-09-18T11:28:23.255Z,21.99
2022-09-18T11:31:00.419Z,22.31
2022-09-18T11:33:30.070Z,22.77
2022-09-18T11:36:02.212Z,22.65
2022-09-18T11:38:31.643Z,22.51
2022-09-18T11:41:04.345Z,22.48
2022-09-18T11:43:39.482Z,22.69
2022-09-18T11:46:14.740Z,22.46
2022-09-18T11:48:45.090Z,22.20
2022-09-18T11:51:16.657Z,22.13
2022-09-18T11:53:47.400Z,21.97
2022-09-18T11:56:17.274Z,22.10
2022-09-18T11:58:48.499Z,22.01
2022-09-18T12:01:24.575Z,21.92
2022-09-18T12:03:55.082Z,21.77
2022-09-18T12:06:27.531Z,21.75
2022-09-18T12:08:56.626Z,21.69
2022-09-18T12:11:32.501Z,21.56
2022-09-18T12:14:05.333Z,21.38
2022-09-18T12:16:45.788Z,21.54
2022-09-18T12:19:18.202Z,21.78
2022-09-18T12:21:55.002Z,21.62
2022-09-18T12:24:24.027Z,21.73
2022-09-18T12:27:10.055Z,22.29
2022-09-18T12:29:46.452Z,22.32
2022-09-18T12:32:23.314Z,22.60
2022-09-18T12:34:55.248Z,22.96
2022-09-18T12:37:40.082Z,23.36
2022-09-18T12:40:42.076Z,23.95
2022-09-18T12:43:21.954Z,24.14
2022-09-18T12:46:23.368Z,24.36
2022-09-18T12:49:12.812Z,24.32
2022-09-18T12:51:43.286Z,24.41
2022-09-18T12:54:33.611Z,24.78
2022-09-18T12:57:14.750Z,25.12
2022-09-18T12:59:55.165Z,25.10
2022-09-18T13:02:28.488Z,25.13
2022-09-18T13:04:59.807Z,25.24
2022-09-18T13:07:29.715Z,25.26
2022-09-18T13:10:00.406Z,25.40
2022-09-18T13:12:32.143Z,25.68
2022-09-18T13:15:01.135Z,25.78
2022-09-18T13:17:32.567Z,25.88
2022-09-18T13:20:06.657Z,26.05
2022-09-18T13:22:36.373Z,26.27
2022-09-18T13:25:04.557Z,26.33
2022-09-18T13:27:32.716Z,26.15
2022-09-18T13:30:10.806Z,25.92
2022-09-18T13:32:40.947Z,25.56
2022-09-18T13:35:20.667Z,25.46
2022-09-18T13:37:49.060Z,25.52
2022-09-18T13:40:28.673Z,25.42
2022-09-18T13:42:58.356Z,25.35
2022-09-18T13:45:27.134Z,25.34
2022-09-18T13:48:03.664Z,25.09
2022-09-18T13:50:33.307Z,25.26
2022-09-18T13:53:02.021Z,25.27
2022-09-18T13:55:52.721Z,25.33
2022-09-18T13:58:50.096Z,25.38
2022-09-18T14:01:59.999Z,25.34
2022-09-18T14:04:50.580Z,24.96
2022-09-18T14:07:49.560Z,24.47
2022-09-18T14:10:37.596Z,24.37
2022-09-18T14:13:33.916Z,24.15
2022-09-18T14:16:06.012Z,24.24
2022-09-18T14:18:36.643Z,24.28
2022-09-18T14:21:24.685Z,24.39
2022-09-18T14:24:25.415Z,24.79
2022-09-18T14:27:23.164Z,25.49
2022-09-18T14:29:55.093Z,26.18
2022-09-18T14:32:24.663Z,26.44
2022-09-18T14:34:54.830Z,26.19
2022-09-18T14:37:27.930Z,25.60
2022-09-18T14:39:58.675Z,25.17
2022-09-18T14:42:33.266Z,24.66
2022-09-18T14:45:15.539Z,24.18
2022-09-18T14:47:44.742Z,23.68
2022-09-18T14:50:33.861Z,23.21
2022-09-18T14:53:03.618Z,23.04
2022-09-18T14:55:35.225Z,22.79
2022-09-18T14:58:05.754Z,22.73
2022-09-18T15:00:34.709Z,22.58
2022-09-18T15:03:04.926Z,22.37
2022-09-18T15:05:34.082Z,22.38
2022-09-18T15:08:03.770Z,22.44
2022-09-18T15:10:34.895Z,22.46
2022-09-18T15:13:04.454Z,22.90
2022-09-18T15:15:34.221Z,23.13
2022-09-18T15:18:02.650Z,23.22
2022-09-18T15:20:31.061Z,23.36
2022-09-18T15:22:59.171Z,23.12
2022-09-18T15:25:29.847Z,22.98
2022-09-18T15:28:02.818Z,22.89
2022-09-18T15:30:30.903Z,23.02
2022-09-18T15:33:00.186Z,23.53
2022-09-18T15:35:29.673Z,23.42
2022-09-18T15:38:02.846Z,23.82
2022-09-18T15:40:33.332Z,24.22
2022-09-18T15:43:03.994Z,24.26
2022-09-18T15:45:32.717Z,24.07
2022-09-18T15:48:01.741Z,24.08
2022-09-18T15:50:40.498Z,23.77
2022-09-18T15:53:23.524Z,23.57
2022-09-18T15:55:56.698Z,23.42
2022-09-18T15:58:37.074Z,23.20
2022-09-18T16:01:06.117Z,23.33
2022-09-18T16:03:34.557Z,24.19
2022-09-18T16:06:05.321Z,24.52
2022-09-18T16:08:34.191Z,25.06
2022-09-18T16:11:02.244Z,25.83
2022-09-18T16:13:35.417Z,26.51
2022-09-18T16:16:25.211Z,26.60
2022-09-18T16:18:56.242Z,26.63
2022-09-18T16:21:25.690Z,26.48
2022-09-18T16:23:55.299Z,26.48
2022-09-18T16:26:26.836Z,26.53
2022-09-18T16:28:57.084Z,26.49
2022-09-18T16:31:26.137Z,26.39
2022-09-18T16:33:57.292Z,26.15
2022-09-18T16:36:27.981Z,25.27
2022-09-18T16:38:56.094Z,25.25
2022-09-18T16:41:24.109Z,25.46
2022-09-18T16:43:53.926Z,25.56
2022-09-18T16:46:23.831Z,25.11
2022-09-18T16:48:52.127Z,24.95
2022-09-18T16:51:21.942Z,25.50
2022-09-18T16:53:50.029Z,25.92
2022-09-18T16:56:18.856Z,26.33
2022-09-18T16:58:47.049Z,26.73
2022-09-18T17:01:15.704Z,26.90
2022-09-18T17:03:45.110Z,26.51
2022-09-18T17:06:17.079Z,26.70
2022-09-18T17:08:46.947Z,26.99
2022-09-18T17:11:15.003Z,26.97
2022-09-18T17:13:43.207Z,26.29
2022-09-18T17:16:11.221Z,25.71
2022-09-18T17:18:39.323Z,25.84
2022-09-18T17:21:08.815Z,26.20
2022-09-18T17:23:37.056Z,26.36
2022-09-18T17:26:06.540Z,26.38
2022-09-18T17:28:34.629Z,26.53
2022-09-18T17:31:09.591Z,26.42
2022-09-18T17:33:37.717Z,25.88
2022-09-18T17:36:06.394Z,25.58
2022-09-18T17:38:36.123Z,25.51
2022-09-18T17:41:05.264Z,25.36
2022-09-18T17:43:33.341Z,25.01
2022-09-18T17:46:02.062Z,24.76
2022-09-18T17:48:31.359Z,24.77
2022-09-18T17:50:59.521Z,24.56
2022-09-18T17:53:27.640Z,24.02
2022-09-18T17:55:57.613Z,23.64
2022-09-18T17:58:27.956Z,23.07
2022-09-18T18:00:56.378Z,22.55
2022-09-18T18:03:24.722Z,22.09
2022-09-18T18:05:53.411Z,21.80
2022-09-18T18:08:21.405Z,21.53
2022-09-18T18:10:49.418Z,21.13
2022-09-18T18:13:19.069Z,21.00
2022-09-18T18:15:48.137Z,20.85
2022-09-18T18:18:16.233Z,20.73
2022-09-18T18:20:50.789Z,20.57
2022-09-18T18:23:18.888Z,20.30
2022-09-18T18:25:47.195Z,20.24
2022-09-18T18:28:15.376Z,20.24
2022-09-18T18:30:45.454Z,20.17
2022-09-18T18:33:13.543Z,20.03
2022-09-18T18:35:41.728Z,20.02
2022-09-18T18:38:10.095Z,19.93
2022-09-18T18:40:38.910Z,19.78
2022-09-18T18:43:07.120Z,19.72
2022-09-18T18:45:37.495Z,19.60
2022-09-18T18:48:09.817Z,19.48
2022-09-18T18:50:42.699Z,19.36
2022-09-18T18:53:11.203Z,19.26
2022-09-18T18:55:39.177Z,19.09
2022-09-18T18:58:07.257Z,18.89
2022-09-18T19:00:36.387Z,18.96
2022-09-18T19:03:04.489Z,18.88
2022-09-18T19:05:35.126Z,18.81
2022-09-18T19:08:03.477Z,18.72
2022-09-18T19:10:32.002Z,18.75
2022-09-18T19:13:01.970Z,18.70
2022-09-18T19:15:30.053Z,18.64
2022-09-18T19:18:01.901Z,18.56
2022-09-18T19:20:30.406Z,18.44
2022-09-18T19:22:59.905Z,18.39
2022-09-18T19:25:28.134Z,18.33
2022-09-18T19:27:56.677Z,18.25
2022-09-18T19:30:25.964Z,18.23
2022-09-18T19:32:56.829Z,18.15
2022-09-18T19:35:24.893Z,18.13
2022-09-18T19:37:52.871Z,17.94
2022-09-18T19:40:22.587Z,17.98
2022-09-18T19:42:55.580Z,17.94
2022-09-18T19:45:25.097Z,17.89
2022-09-18T19:47:53.118Z,17.90
2022-09-18T19:50:25.186Z,17.66
2022-09-18T19:52:53.282Z,17.82
2022-09-18T19:55:22.767Z,17.76
2022-09-18T19:57:50.950Z,17.68
2022-09-18T20:00:19.218Z,17.73
2022-09-18T20:02:47.644Z,17.71
2022-09-18T20:05:15.874Z,17.65
2022-09-18T20:07:43.922Z,17.59
2022-09-18T20:10:13.429Z,17.32
2022-09-18T20:12:43.272Z,17.45
2022-09-18T20:15:12.254Z,17.25
2022-09-18T20:17:40.289Z,17.36
2022-09-18T20:20:10.801Z,17.34
2022-09-18T20:22:41.679Z,17.33
2022-09-18T20:25:10.350Z,17.28
2022-09-18T20:27:39.491Z,17.25
2022-09-18T20:30:12.642Z,17.18
2022-09-18T20:32:40.858Z,17.15
2022-09-18T20:35:09.998Z,16.98
2022-09-18T20:37:37.995Z,17.10
2022-09-18T20:40:07.353Z,16.93
2022-09-18T20:42:35.594Z,17.03
2022-09-18T20:45:03.745Z,17.07
2022-09-18T20:47:35.026Z,17.00
2022-09-18T20:50:06.676Z,16.98
2022-09-18T20:52:36.686Z,16.91
2022-09-18T20:55:08.744Z,16.85
2022-09-18T20:57:37.335Z,16.81
2022-09-18T21:00:06.456Z,16.66
2022-09-18T21:02:36.414Z,16.62
2022-09-18T21:05:07.442Z,16.67
2022-09-18T21:07:35.641Z,16.72
2022-09-18T21:10:03.651Z,16.69
2022-09-18T21:12:35.168Z,16.59
2022-09-18T21:15:03.708Z,16.63
2022-09-18T21:17:32.275Z,16.63
2022-09-18T21:20:02.272Z,16.52
2022-09-18T21:22:31.781Z,16.54
2022-09-18T21:24:59.919Z,16.52
2022-09-18T21:27:30.294Z,16.49
2022-09-18T21:29:59.173Z,16.55
2022-09-18T21:32:27.213Z,16.61
2022-09-18T21:34:55.309Z,16.66
2022-09-18T21:37:24.740Z,16.70
2022-09-18T21:39:55.897Z,16.73
2022-09-18T21:42:25.181Z,16.75
2022-09-18T21:44:53.306Z,16.75
2022-09-18T21:47:21.359Z,16.73
2022-09-18T21:49:49.422Z,16.75
2022-09-18T21:52:17.445Z,16.76
2022-09-18T21:54:48.915Z,16.73
2022-09-18T21:57:18.692Z,16.75
2022-09-18T21:59:47.698Z,16.71
2022-09-18T22:02:17.284Z,16.72
2022-09-18T22:04:46.050Z,16.61
2022-09-18T22:07:30.092Z,16.69
2022-09-18T22:10:01.215Z,16.61
2022-09-18T22:12:29.289Z,16.64
2022-09-18T22:14:57.492Z,16.61
2022-09-18T22:17:27.767Z,16.60
2022-09-18T22:19:59.500Z,16.56
2022-09-18T22:22:29.336Z,16.42
2022-09-18T22:25:03.154Z,16.35
2022-09-18T22:27:31.886Z,16.49
2022-09-18T22:30:00.718Z,16.49
2022-09-18T22:32:29.286Z,16.49
2022-09-18T22:34:57.630Z,16.47
2022-09-18T22:37:26.810Z,16.43
2022-09-18T22:39:55.421Z,16.41
2022-09-18T22:42:25.229Z,16.27
2022-09-18T22:44:53.409Z,16.29
2022-09-18T22:47:21.622Z,16.37
2022-09-18T22:49:49.766Z,16.39
2022-09-18T22:52:17.823Z,16.38
2022-09-18T22:54:46.139Z,16.38
2022-09-18T22:57:14.266Z,16.34
2022-09-18T22:59:43.783Z,16.31
2022-09-18T23:02:12.140Z,16.24
2022-09-18T23:04:40.564Z,16.29
2022-09-18T23:07:09.023Z,16.27
2022-09-18T23:09:37.430Z,16.24
2022-09-18T23:12:06.409Z,16.27
2022-09-18T23:14:34.760Z,16.25
2022-09-18T23:17:04.513Z,16.24
2022-09-18T23:19:34.548Z,16.19
2022-09-18T23:22:03.019Z,16.23
2022-09-18T23:24:31.907Z,16.18
2022-09-18T23:27:00.135Z,16.23
2022-09-18T23:29:29.364Z,16.24
2022-09-18T23:31:59.756Z,16.26
2022-09-18T23:34:34.945Z,16.28
2022-09-18T23:37:03.333Z,16.12
2022-09-18T23:39:32.797Z,16.30
2022-09-18T23:42:01.504Z,16.28
2022-09-18T23:44:31.279Z,16.22
2022-09-18T23:47:00.355Z,16.06
2022-09-18T23:49:30.161Z,16.05
2022-09-18T23:51:59.448Z,16.10
2022-09-18T23:54:28.759Z,16.23
2022-09-18T23:56:56.827Z,16.10
2022-09-18T23:59:26.286Z,16.22
